createdAt,value
2022-11-02T00:00:41.087Z,99269.38
2022-11-02T00:03:08.113Z,99268.16
2022-11-02T00:05:35.159Z,99268.44
2022-11-02T00:08:01.688Z,99268.94
2022-11-02T00:10:29.848Z,99263.91
2022-11-02T00:12:56.603Z,99273.03
2022-11-02T00:15:25.338Z,99276.06
2022-11-02T00:17:55.952Z,99263.09
2022-11-02T00:20:22.907Z,99261.28
2022-11-02T00:22:53.060Z,99267.63
2022-11-02T00:25:23.211Z,99270.91
2022-11-02T00:27:49.672Z,99257.22
2022-11-02T00:30:16.226Z,99253.59
2022-11-02T00:32:42.646Z,99251.97
2022-11-02T00:35:10.160Z,99255.84
2022-11-02T00:37:36.698Z,99268.22
2022-11-02T00:40:04.104Z,99282.13
2022-11-02T00:42:30.500Z,99284.69
2022-11-02T00:44:56.885Z,99276.69
2022-11-02T00:47:23.327Z,99265.53
2022-11-02T00:49:49.734Z,99269.28
2022-11-02T00:52:16.153Z,99268.22
2022-11-02T00:54:42.666Z,99273.66
2022-11-02T00:57:09.462Z,99288.03
2022-11-02T00:59:35.875Z,99277.31
2022-11-02T01:02:02.332Z,99279.91
2022-11-02T01:04:28.824Z,99279.81
2022-11-02T01:06:55.461Z,99274.78
2022-11-02T01:09:21.894Z,99277.13
2022-11-02T01:11:48.374Z,99274.44
2022-11-02T01:14:14.803Z,99271.13
2022-11-02T01:16:41.588Z,99268.38
2022-11-02T01:19:08.262Z,99277.06
2022-11-02T01:21:34.711Z,99267.00
2022-11-02T01:24:01.150Z,99267.28
2022-11-02T01:26:27.697Z,99265.84
2022-11-02T01:28:54.903Z,99265.50
2022-11-02T01:31:21.974Z,99266.84
2022-11-02T01:33:48.519Z,99250.16
2022-11-02T01:36:19.946Z,99253.84
2022-11-02T01:38:46.903Z,99257.16
2022-11-02T01:41:13.856Z,99251.44
2022-11-02T01:43:45.960Z,99250.53
2022-11-02T01:46:12.552Z,99249.47
2022-11-02T01:48:47.658Z,99245.25
2022-11-02T01:51:20.028Z,99247.38
2022-11-02T01:53:49.581Z,99244.06
2022-11-02T01:56:20.192Z,99242.56
2022-11-02T01:58:54.629Z,99243.38
2022-11-02T02:01:21.299Z,99239.25
2022-11-02T02:03:48.951Z,99240.22
2022-11-02T02:06:15.944Z,99225.34
2022-11-02T02:08:46.438Z,99232.00
2022-11-02T02:11:30.563Z,99223.91
2022-11-02T02:14:00.992Z,99228.50
2022-11-02T02:16:35.793Z,99225.06
2022-11-02T02:19:15.730Z,99225.75
2022-11-02T02:21:57.398Z,99225.81
2022-11-02T02:24:45.330Z,99232.00
2022-11-02T02:27:18.810Z,99229.31
2022-11-02T02:29:53.847Z,99229.19
2022-11-02T02:32:31.006Z,99241.84
2022-11-02T02:35:08.483Z,99240.91
2022-11-02T02:37:43.307Z,99244.31
2022-11-02T02:40:22.513Z,99231.88
2022-11-02T02:43:03.646Z,99229.31
2022-11-02T02:45:37.408Z,99235.63
2022-11-02T02:48:11.634Z,99243.72
2022-11-02T02:50:46.023Z,99237.53
2022-11-02T02:53:14.787Z,99240.22
2022-11-02T02:55:45.178Z,99240.91
2022-11-02T02:58:23.044Z,99239.13
2022-11-02T03:00:49.817Z,99241.09
2022-11-02T03:03:20.080Z,99243.06
2022-11-02T03:06:03.006Z,99242.63
2022-11-02T03:08:30.795Z,99242.63
2022-11-02T03:11:10.166Z,99239.69
2022-11-02T03:14:06.432Z,99238.63
2022-11-02T03:19:44.281Z,99234.34
2022-11-02T03:22:35.641Z,99239.22
2022-11-02T03:25:13.229Z,99237.59
2022-11-02T03:28:20.785Z,99242.84
2022-11-02T03:30:57.694Z,99236.38
2022-11-02T03:33:34.498Z,99239.00
2022-11-02T03:36:15.949Z,99251.78
2022-11-02T03:39:10.235Z,99257.75
2022-11-02T03:41:39.430Z,99245.72
2022-11-02T03:44:17.252Z,99261.28
2022-11-02T03:46:44.690Z,99253.78
2022-11-02T03:49:15.466Z,99266.44
2022-11-02T03:51:45.162Z,99265.50
2022-11-02T03:54:36.046Z,99269.56
2022-11-02T03:59:35.812Z,99271.63
2022-11-02T04:02:03.289Z,99273.63
2022-11-02T04:04:29.823Z,99277.50
2022-11-02T04:06:56.757Z,99280.34
2022-11-02T04:09:23.194Z,99280.34
2022-11-02T04:12:08.066Z,99284.97
2022-11-02T04:14:41.001Z,99279.84
2022-11-02T04:20:00.490Z,99284.69
2022-11-02T04:22:55.911Z,99288.84
2022-11-02T04:25:22.970Z,99290.06
2022-11-02T04:27:53.448Z,99283.63
2022-11-02T04:30:22.386Z,99287.84
2022-11-02T04:33:09.341Z,99280.78
2022-11-02T04:35:37.459Z,99277.50
2022-11-02T04:38:22.518Z,99298.69
2022-11-02T04:40:51.018Z,99298.69
2022-11-02T04:43:17.393Z,99285.19
2022-11-02T04:45:43.775Z,99288.25
2022-11-02T04:48:10.295Z,99296.34
2022-11-02T04:50:37.247Z,99290.84
2022-11-02T04:53:07.040Z,99301.06
2022-11-02T04:55:34.579Z,99293.13
2022-11-02T04:58:01.191Z,99299.63
2022-11-02T05:00:27.767Z,99299.13
2022-11-02T05:02:54.236Z,99302.88
2022-11-02T05:05:20.801Z,99302.22
2022-11-02T05:07:47.203Z,99299.69
2022-11-02T05:10:13.669Z,99312.63
2022-11-02T05:12:40.083Z,99311.72
2022-11-02T05:15:06.835Z,99308.41
2022-11-02T05:17:33.443Z,99305.63
2022-11-02T05:19:59.873Z,99319.34
2022-11-02T05:22:26.300Z,99314.06
2022-11-02T05:24:52.694Z,99310.84
2022-11-02T05:27:19.109Z,99321.69
2022-11-02T05:29:45.520Z,99320.19
2022-11-02T05:32:11.959Z,99323.78
2022-11-02T05:34:38.352Z,99321.09
2022-11-02T05:37:04.752Z,99321.31
2022-11-02T05:39:31.242Z,99311.66
2022-11-02T05:41:57.637Z,99322.78
2022-11-02T05:44:24.042Z,99325.47
2022-11-02T05:46:50.439Z,99331.63
2022-11-02T05:49:16.825Z,99336.66
2022-11-02T05:51:44.061Z,99330.16
2022-11-02T05:54:10.499Z,99333.53
2022-11-02T05:56:36.886Z,99341.56
2022-11-02T05:59:03.313Z,99343.00
2022-11-02T06:01:29.749Z,99341.47
2022-11-02T06:03:56.598Z,99342.75
2022-11-02T06:06:23.038Z,99345.31
2022-11-02T06:08:49.774Z,99352.25
2022-11-02T06:11:16.634Z,99350.50
2022-11-02T06:13:43.125Z,99355.91
2022-11-02T06:16:12.142Z,99359.59
2022-11-02T06:18:39.225Z,99356.25
2022-11-02T06:21:06.097Z,99355.63
2022-11-02T06:23:32.982Z,99358.91
2022-11-02T06:26:00.529Z,99362.75
2022-11-02T06:28:27.786Z,99375.44
2022-11-02T06:30:54.340Z,99369.47
2022-11-02T06:33:21.382Z,99378.63
2022-11-02T06:35:49.773Z,99378.16
2022-11-02T06:38:16.972Z,99381.44
2022-11-02T06:40:44.137Z,99389.72
2022-11-02T06:43:16.511Z,99393.94
2022-11-02T06:45:43.690Z,99406.44
2022-11-02T06:48:10.084Z,99399.88
2022-11-02T06:50:36.470Z,99403.31
2022-11-02T06:53:03.802Z,99402.72
2022-11-02T06:55:30.546Z,99411.06
2022-11-02T06:57:56.980Z,99414.53
2022-11-02T07:00:24.119Z,99418.19
2022-11-02T07:03:09.454Z,99424.25
2022-11-02T07:05:36.878Z,99425.31
2022-11-02T07:08:04.809Z,99426.72
2022-11-02T07:10:31.998Z,99443.09
2022-11-02T07:12:58.610Z,99435.47
2022-11-02T07:15:26.347Z,99442.88
2022-11-02T07:17:53.186Z,99440.63
2022-11-02T07:20:20.036Z,99441.44
2022-11-02T07:22:57.777Z,99445.56
2022-11-02T07:25:25.329Z,99446.38
2022-11-02T07:27:51.731Z,99444.94
2022-11-02T07:30:18.439Z,99450.38
2022-11-02T07:32:46.097Z,99450.22
2022-11-02T07:35:14.154Z,99451.75
2022-11-02T07:37:41.571Z,99451.53
2022-11-02T07:40:10.251Z,99464.41
2022-11-02T07:42:36.679Z,99451.69
2022-11-02T07:45:03.324Z,99454.38
2022-11-02T07:47:30.831Z,99464.44
2022-11-02T07:49:59.569Z,99463.94
2022-11-02T07:52:25.976Z,99462.69
2022-11-02T07:54:52.424Z,99459.91
2022-11-02T07:57:18.855Z,99464.81
2022-11-02T07:59:45.250Z,99471.06
2022-11-02T08:02:13.571Z,99467.19
2022-11-02T08:04:43.840Z,99473.66
2022-11-02T08:07:11.523Z,99468.94
2022-11-02T08:09:37.916Z,99470.00
2022-11-02T08:12:04.443Z,99481.81
2022-11-02T08:14:30.854Z,99483.16
2022-11-02T08:16:57.246Z,99479.50
2022-11-02T08:19:23.716Z,99477.47
2022-11-02T08:21:50.272Z,99476.81
2022-11-02T08:24:16.720Z,99483.81
2022-11-02T08:26:45.327Z,99481.69
2022-11-02T08:29:14.376Z,99488.66
2022-11-02T08:31:40.772Z,99480.31
2022-11-02T08:34:07.423Z,99483.81
2022-11-02T08:36:36.655Z,99483.84
2022-11-02T08:39:03.531Z,99477.28
2022-11-02T08:41:29.963Z,99477.63
2022-11-02T08:43:57.434Z,99481.97
2022-11-02T08:46:23.955Z,99478.97
2022-11-02T08:48:50.757Z,99480.09
2022-11-02T08:51:17.154Z,99476.28
2022-11-02T08:53:48.609Z,99475.44
2022-11-02T08:56:17.784Z,99467.06
2022-11-02T08:58:44.185Z,99473.59
2022-11-02T09:01:10.665Z,99466.59
2022-11-02T09:03:37.260Z,99464.63
2022-11-02T09:06:03.851Z,99466.19
2022-11-02T09:08:30.736Z,99468.00
2022-11-02T09:11:02.642Z,99460.03
2022-11-02T09:13:29.547Z,99465.47
2022-11-02T09:15:58.003Z,99461.00
2022-11-02T09:18:24.477Z,99468.63
2022-11-02T09:20:51.527Z,99467.69
2022-11-02T09:23:19.462Z,99469.78
2022-11-02T09:25:46.181Z,99469.94
2022-11-02T09:28:13.953Z,99460.31
2022-11-02T09:30:40.434Z,99456.94
2022-11-02T09:33:07.714Z,99459.94
2022-11-02T09:35:36.899Z,99460.22
2022-11-02T09:38:03.868Z,99459.41
2022-11-02T09:40:36.663Z,99461.78
2022-11-02T09:43:09.284Z,99464.44
2022-11-02T09:45:42.222Z,99460.81
2022-11-02T09:48:23.332Z,99454.00
2022-11-02T09:51:19.843Z,99456.88
2022-11-02T09:54:08.588Z,99445.53
2022-11-02T09:56:37.520Z,99449.09
2022-11-02T09:59:11.772Z,99452.03
2022-11-02T10:01:57.762Z,99450.22
2022-11-02T10:04:29.972Z,99450.88
2022-11-02T10:07:10.335Z,99446.81
2022-11-02T10:09:51.531Z,99443.94
2022-11-02T10:12:42.634Z,99436.81
2022-11-02T10:15:17.263Z,99433.56
2022-11-02T10:17:46.194Z,99434.16
2022-11-02T10:20:32.532Z,99425.63
2022-11-02T10:23:03.665Z,99419.78
2022-11-02T10:25:30.503Z,99420.13
2022-11-02T10:28:05.035Z,99403.66
2022-11-02T10:30:32.235Z,99406.47
2022-11-02T10:32:59.317Z,99411.09
2022-11-02T10:36:18.415Z,99411.38
2022-11-02T10:39:13.634Z,99408.66
2022-11-02T10:42:17.021Z,99407.00
2022-11-02T10:44:56.238Z,99402.09
2022-11-02T10:47:33.343Z,99395.84
2022-11-02T10:50:14.022Z,99401.56
2022-11-02T10:52:44.870Z,99395.59
2022-11-02T10:55:21.356Z,99398.03
2022-11-02T10:57:48.923Z,99390.44
2022-11-02T11:00:34.709Z,99390.44
2022-11-02T11:03:06.406Z,99394.78
2022-11-02T11:05:34.913Z,99390.13
2022-11-02T11:08:02.606Z,99386.88
2022-11-02T11:10:36.523Z,99380.06
2022-11-02T11:13:04.027Z,99388.25
2022-11-02T11:15:49.743Z,99381.09
2022-11-02T11:21:07.598Z,99369.88
2022-11-02T11:23:34.135Z,99370.44
2022-11-02T11:26:01.909Z,99371.00
2022-11-02T11:28:55.039Z,99367.41
2022-11-02T11:31:22.092Z,99360.78
2022-11-02T11:33:51.363Z,99355.91
2022-11-02T11:38:55.351Z,99345.63
2022-11-02T11:41:22.631Z,99352.66
2022-11-02T11:43:51.922Z,99346.16
2022-11-02T11:46:18.469Z,99351.50
2022-11-02T11:48:52.150Z,99344.97
2022-11-02T11:51:26.284Z,99338.22
2022-11-02T11:54:05.379Z,99340.44
2022-11-02T11:56:32.483Z,99332.69
2022-11-02T11:58:59.322Z,99335.88
2022-11-02T12:01:25.790Z,99327.75
2022-11-02T12:04:01.441Z,99326.97
2022-11-02T12:06:45.750Z,99320.06
2022-11-02T12:10:01.644Z,99319.19
2022-11-02T12:12:42.750Z,99323.03
2022-11-02T12:15:44.856Z,99311.94
2022-11-02T12:18:48.478Z,99315.53
2022-11-02T12:21:17.664Z,99307.69
2022-11-02T12:24:12.465Z,99307.88
2022-11-02T12:27:15.533Z,99307.84
2022-11-02T12:29:53.597Z,99298.31
2022-11-02T12:32:38.670Z,99293.97
2022-11-02T12:35:28.261Z,99297.09
2022-11-02T12:38:10.563Z,99296.88
2022-11-02T12:41:07.302Z,99290.03
2022-11-02T12:43:48.752Z,99291.41
2022-11-02T12:46:17.977Z,99284.13
2022-11-02T12:49:11.363Z,99279.25
2022-11-02T12:51:40.633Z,99276.22
2022-11-02T12:54:15.601Z,99277.19
2022-11-02T12:56:51.288Z,99278.63
2022-11-02T12:59:29.554Z,99274.16
2022-11-02T13:02:10.369Z,99280.03
2022-11-02T13:04:58.173Z,99267.66
2022-11-02T13:07:42.796Z,99266.44
2022-11-02T13:10:19.569Z,99259.63
2022-11-02T13:12:50.255Z,99247.97
2022-11-02T13:15:21.476Z,99259.47
2022-11-02T13:17:54.515Z,99253.16
2022-11-02T13:20:23.270Z,99255.13
2022-11-02T13:22:58.028Z,99252.28
2022-11-02T13:25:48.592Z,99251.75
2022-11-02T13:28:25.244Z,99261.97
2022-11-02T13:30:53.098Z,99254.84
2022-11-02T13:33:26.695Z,99253.84
2022-11-02T13:35:54.238Z,99248.31
2022-11-02T13:39:03.196Z,99240.59
2022-11-02T13:42:19.255Z,99237.06
2022-11-02T13:45:10.202Z,99230.31
2022-11-02T13:48:02.147Z,99227.16
2022-11-02T13:50:33.239Z,99232.38
2022-11-02T13:53:05.184Z,99237.47
2022-11-02T13:56:00.992Z,99229.47
2022-11-02T13:58:31.429Z,99234.47
2022-11-02T14:01:07.921Z,99226.16
2022-11-02T14:03:46.541Z,99227.81
2022-11-02T14:06:15.677Z,99219.72
2022-11-02T14:09:04.015Z,99224.72
2022-11-02T14:11:44.914Z,99228.19
2022-11-02T14:14:11.241Z,99223.63
2022-11-02T14:16:50.375Z,99215.22
2022-11-02T14:19:32.195Z,99217.97
2022-11-02T14:21:58.820Z,99221.38
2022-11-02T14:24:34.550Z,99219.75
2022-11-02T14:27:02.327Z,99217.63
2022-11-02T14:29:49.959Z,99219.81
2022-11-02T14:32:23.878Z,99215.72
2022-11-02T14:35:09.195Z,99214.97
2022-11-02T14:38:04.765Z,99210.09
2022-11-02T14:40:47.534Z,99207.34
2022-11-02T14:43:43.349Z,99214.97
2022-11-02T14:46:24.731Z,99206.84
2022-11-02T14:48:55.086Z,99209.56
2022-11-02T14:51:28.452Z,99198.69
2022-11-02T14:54:14.033Z,99197.31
2022-11-02T14:56:49.566Z,99196.22
2022-11-02T14:59:28.999Z,99199.22
2022-11-02T15:02:42.009Z,99199.75
2022-11-02T15:05:22.854Z,99191.84
2022-11-02T15:07:59.750Z,99187.19
2022-11-02T15:10:32.196Z,99196.47
2022-11-02T15:13:20.552Z,99191.84
2022-11-02T15:15:56.082Z,99190.47
2022-11-02T15:18:37.067Z,99192.63
2022-11-02T15:21:17.695Z,99189.94
2022-11-02T15:24:02.229Z,99179.56
2022-11-02T15:26:48.631Z,99183.34
2022-11-02T15:29:25.602Z,99172.97
2022-11-02T15:31:55.913Z,99175.06
2022-11-02T15:34:35.925Z,99179.38
2022-11-02T15:37:03.465Z,99177.75
2022-11-02T15:39:31.178Z,99178.28
2022-11-02T15:42:06.585Z,99170.53
2022-11-02T15:44:42.362Z,99175.91
2022-11-02T15:47:23.966Z,99174.50
2022-11-02T15:50:10.106Z,99169.50
2022-11-02T15:53:22.432Z,99168.06
2022-11-02T15:56:07.838Z,99169.44
2022-11-02T15:58:56.030Z,99162.88
2022-11-02T16:01:25.095Z,99153.44
2022-11-02T16:03:58.839Z,99152.56
2022-11-02T16:06:31.915Z,99152.03
2022-11-02T16:09:03.449Z,99155.72
2022-11-02T16:11:29.898Z,99153.56
2022-11-02T16:14:18.310Z,99142.16
2022-11-02T16:16:49.719Z,99138.16
2022-11-02T16:19:20.708Z,99144.16
2022-11-02T16:21:49.018Z,99138.69
2022-11-02T16:24:16.594Z,99133.59
2022-11-02T16:26:45.229Z,99137.03
2022-11-02T16:29:15.846Z,99131.84
2022-11-02T16:31:43.770Z,99135.81
2022-11-02T16:34:33.883Z,99136.03
2022-11-02T16:37:07.314Z,99137.88
2022-11-02T16:39:39.709Z,99129.09
2022-11-02T16:42:26.524Z,99124.84
2022-11-02T16:44:59.277Z,99129.16
2022-11-02T16:47:36.644Z,99119.91
2022-11-02T16:50:04.802Z,99118.16
2022-11-02T16:52:34.283Z,99125.69
2022-11-02T16:55:04.321Z,99126.56
2022-11-02T16:57:44.274Z,99126.56
2022-11-02T17:00:20.157Z,99128.50
2022-11-02T17:02:47.674Z,99128.13
2022-11-02T17:05:17.998Z,99117.50
2022-11-02T17:07:57.460Z,99123.28
2022-11-02T17:10:26.742Z,99114.59
2022-11-02T17:12:54.359Z,99117.03
2022-11-02T17:15:23.380Z,99122.75
2022-11-02T17:17:50.523Z,99116.09
2022-11-02T17:20:20.935Z,99114.09
2022-11-02T17:22:55.413Z,99118.38
2022-11-02T17:25:23.362Z,99116.09
2022-11-02T17:27:51.332Z,99111.25
2022-11-02T17:30:29.759Z,99116.47
2022-11-02T17:32:58.067Z,99107.97
2022-11-02T17:35:27.422Z,99108.22
2022-11-02T17:37:54.306Z,99118.22
2022-11-02T17:40:21.832Z,99112.41
2022-11-02T17:43:00.883Z,99118.88
2022-11-02T17:45:37.447Z,99114.59
2022-11-02T17:48:06.251Z,99109.47
2022-11-02T17:50:37.744Z,99116.25
2022-11-02T17:53:05.992Z,99115.28
2022-11-02T17:55:34.638Z,99115.09
2022-11-02T17:58:01.308Z,99115.94
2022-11-02T18:00:28.765Z,99114.13
2022-11-02T18:02:58.378Z,99107.47
2022-11-02T18:05:35.232Z,99109.78
2022-11-02T18:08:03.033Z,99107.25
2022-11-02T18:10:51.308Z,99111.50
2022-11-02T18:13:20.362Z,99109.34
2022-11-02T18:15:47.530Z,99107.38
2022-11-02T18:18:14.082Z,99106.75
2022-11-02T18:20:41.996Z,99102.53
2022-11-02T18:23:15.799Z,99113.09
2022-11-02T18:25:42.647Z,99122.75
2022-11-02T18:28:09.244Z,99121.66
2022-11-02T18:30:35.867Z,99113.25
2022-11-02T18:33:02.854Z,99112.13
2022-11-02T18:35:29.670Z,99123.66
2022-11-02T18:37:56.605Z,99114.00
2022-11-02T18:40:23.032Z,99114.69
2022-11-02T18:42:49.871Z,99114.16
2022-11-02T18:45:16.536Z,99109.34
2022-11-02T18:47:43.443Z,99105.59
2022-11-02T18:50:12.295Z,99105.31
2022-11-02T18:52:38.831Z,99103.16
2022-11-02T18:55:05.905Z,99104.13
2022-11-02T18:57:32.823Z,99102.91
2022-11-02T18:59:59.742Z,99101.91
2022-11-02T19:02:26.445Z,99105.69
2022-11-02T19:04:52.938Z,99096.06
2022-11-02T19:07:38.248Z,99102.50
2022-11-02T19:10:05.137Z,99092.06
2022-11-02T19:12:31.848Z,99108.25
2022-11-02T19:14:58.518Z,99108.13
2022-11-02T19:17:26.867Z,99101.78
2022-11-02T19:19:53.826Z,99103.44
2022-11-02T19:22:22.735Z,99103.06
2022-11-02T19:24:49.735Z,99095.13
2022-11-02T19:27:25.426Z,99089.75
2022-11-02T19:29:52.473Z,99092.78
2022-11-02T19:32:19.582Z,99079.91
2022-11-02T19:34:46.376Z,99078.13
2022-11-02T19:37:13.071Z,99075.31
2022-11-02T19:39:39.746Z,99081.66
2022-11-02T19:42:07.435Z,99065.16
2022-11-02T19:44:39.587Z,99072.44
2022-11-02T19:47:08.640Z,99075.25
2022-11-02T19:49:35.031Z,99068.00
2022-11-02T19:52:01.456Z,99073.13
2022-11-02T19:54:27.871Z,99066.94
2022-11-02T19:56:54.323Z,99067.06
2022-11-02T19:59:20.773Z,99062.50
2022-11-02T20:01:48.367Z,99066.69
2022-11-02T20:04:14.869Z,99065.31
2022-11-02T20:06:43.170Z,99062.25
2022-11-02T20:09:18.811Z,99070.19
2022-11-02T20:11:46.884Z,99066.91
2022-11-02T20:14:15.049Z,99062.34
2022-11-02T20:16:42.197Z,99070.31
2022-11-02T20:19:09.244Z,99057.44
2022-11-02T20:21:41.547Z,99058.38
2022-11-02T20:24:10.165Z,99060.72
2022-11-02T20:26:38.752Z,99054.59
2022-11-02T20:29:06.711Z,99049.34
2022-11-02T20:31:35.939Z,99052.06
2022-11-02T20:34:04.466Z,99042.94
2022-11-02T20:36:31.156Z,99051.25
2022-11-02T20:38:58.049Z,99034.28
2022-11-02T20:41:26.105Z,99038.13
2022-11-02T20:43:55.465Z,99046.78
2022-11-02T20:46:37.663Z,99049.38
2022-11-02T20:49:19.920Z,99056.97
2022-11-02T20:51:51.848Z,99045.97
2022-11-02T20:54:21.863Z,99054.28
2022-11-02T20:56:49.582Z,99047.72
2022-11-02T20:59:16.171Z,99040.94
2022-11-02T21:01:42.815Z,99047.25
2022-11-02T21:04:09.389Z,99045.63
2022-11-02T21:06:35.799Z,99040.72
2022-11-02T21:09:08.984Z,99041.75
2022-11-02T21:11:55.833Z,99034.97
2022-11-02T21:14:23.269Z,99038.50
2022-11-02T21:16:49.660Z,99044.34
2022-11-02T21:19:16.108Z,99043.53
2022-11-02T21:21:42.495Z,99043.75
2022-11-02T21:24:09.868Z,99037.31
2022-11-02T21:26:36.570Z,99033.13
2022-11-02T21:29:03.327Z,99037.44
2022-11-02T21:31:29.740Z,99039.53
2022-11-02T21:33:56.151Z,99022.69
2022-11-02T21:36:22.559Z,99017.31
2022-11-02T21:38:48.996Z,99022.81
2022-11-02T21:41:19.583Z,99026.31
2022-11-02T21:43:46.041Z,99028.66
2022-11-02T21:46:12.530Z,99027.00
2022-11-02T21:48:39.232Z,99029.69
2022-11-02T21:51:18.612Z,99017.53
2022-11-02T21:53:46.555Z,99018.31
2022-11-02T21:56:15.348Z,99018.44
2022-11-02T21:58:44.876Z,99018.66
2022-11-02T22:01:37.311Z,99025.06
2022-11-02T22:04:04.672Z,99016.16
2022-11-02T22:06:32.071Z,99013.69
2022-11-02T22:08:59.658Z,99019.53
2022-11-02T22:11:29.916Z,99012.88
2022-11-02T22:13:58.503Z,99019.63
2022-11-02T22:16:31.641Z,99018.00
2022-11-02T22:19:00.062Z,99022.16
2022-11-02T22:21:29.119Z,99024.59
2022-11-02T22:23:56.605Z,99017.25
2022-11-02T22:26:25.624Z,99024.28
2022-11-02T22:28:53.100Z,99015.16
2022-11-02T22:31:22.509Z,99018.00
2022-11-02T22:33:51.777Z,99018.44
2022-11-02T22:36:21.341Z,99022.00
2022-11-02T22:38:48.351Z,99018.59
2022-11-02T22:41:15.857Z,99021.84
2022-11-02T22:43:42.995Z,99019.63
2022-11-02T22:46:10.141Z,99019.75
2022-11-02T22:48:36.781Z,99019.81
2022-11-02T22:51:05.979Z,99013.78
2022-11-02T22:53:33.225Z,99007.75
2022-11-02T22:56:02.464Z,98997.47
2022-11-02T22:58:31.251Z,98999.03
2022-11-02T23:00:57.772Z,98992.03
2022-11-02T23:03:24.427Z,98993.03
2022-11-02T23:05:50.847Z,98991.75
2022-11-02T23:08:18.256Z,98981.47
2022-11-02T23:11:03.842Z,98986.09
2022-11-02T23:13:30.255Z,98991.16
2022-11-02T23:16:22.390Z,98987.81
2022-11-02T23:19:10.558Z,98994.63
2022-11-02T23:21:38.859Z,98980.97
2022-11-02T23:24:24.155Z,98978.34
2022-11-02T23:26:50.661Z,98972.69
2022-11-02T23:29:35.859Z,98975.97
2022-11-02T23:32:20.845Z,98959.28
2022-11-02T23:35:05.642Z,98957.50
2022-11-02T23:37:32.077Z,98949.75
2022-11-02T23:39:58.510Z,98946.25
2022-11-02T23:42:24.905Z,98937.66
2022-11-02T23:44:51.541Z,98925.97
2022-11-02T23:47:18.003Z,98915.16
2022-11-02T23:49:44.405Z,98912.72
2022-11-02T23:52:33.119Z,98916.53
2022-11-02T23:55:18.045Z,98907.59
2022-11-02T23:57:44.525Z,98915.84
